KBWI/BWI METAR and TAF weather

Enter ICAO airport designator
Station Type Date Time Source
KBWI METAR 2024/04/15 08:54 UTC NOAA

KBWI 150854Z 19004KT 10SM -RA FEW037 FEW100 SCT120 BKN160 OVC250 17/11 A2977 RMK AO2 RAB11 SLP079 P0000 60000 T01720111 58006


Station Type Date Time Source
KBWI Decoded METAR 2024/04/15 08:54 UTC NOAA

BALTIMORE-WASHINGTON INTERNATIONAL , MD, United States (KBWI) 39-10N 076-41W 59M
Apr 15, 2024 - 04:54 AM EDT / 2024.04.15 0854 UTC
Wind: from the S (190 degrees) at 5 MPH (4 KT):0
Visibility: 10 mile(s):0
Sky conditions: overcast
Weather: light rain
Precipitation last hour: A trace
Temperature: 63.0 F (17.2 C)
Dew Point: 52.0 F (11.1 C)
Relative Humidity: 67%
Pressure (altimeter): 29.77 in. Hg (1008 hPa)
Pressure tendency: 0.02 inches (0.6 hPa) lower than three hours ago
ob: KBWI 150854Z 19004KT 10SM -RA FEW037 FEW100 SCT120 BKN160 OVC250 17/11 A2977 RMK AO2 RAB11 SLP079 P0000 60000 T01720111 58006
cycle: 9

Station Type Date Time Source
KBWI TAF 2024/04/15 09:06 UTC NOAA